Robert Gray Army Air Field Airport
KGRK : now visible

Airfield :











YOU CAN JOIN US ON...

 
LOGIN :

Register | Disclaimer

   EN    FR    IT 

 









Legend :    VFR   Marginal VFR   IFR   Intensive IFR   Very Intensive IFR
Visi :
Ceiling :
>= 8 km
>= 3000ft
5 to 8 km
1000 to 3000 ft
1500m to 5 km
500 to 1000 ft
800 to 1500m
200 to 500 ft
< 800m
< 200 ft
Symbols :   Thunderstorms  Fog  Heavy snow  Heavy precipitations  Wind > 20 kt






- Airport Elevation : 1015 ft
- IATA code : GRK


KGRK - Robert Gray Army Air Field

CURRENT METAR :
  • 200758Z AUTO 00000KT 9SM OVC023 20/16 A2998 RMK AO2 SLP143 T02030155

EXPIRED METARs :
  • 200738Z AUTO 00000KT 9SM BKN021 OVC026 20/15 A2998 RMK AO2 SLP144
  • 200718Z AUTO 35003KT 10SM BKN019 OVC026 20/15 A2998 RMK AO2 SLP144
  • 200658Z AUTO 35004KT 9SM OVC022 20/15 A2998 RMK AO2 SLP144 T01980150
  • 200643Z AUTO 05003KT 9SM SCT017 OVC025 20/15 A2998 RMK AO2 CIG 017V025 CIG 017 RWY15 SLP144
  • 200618Z AUTO 00000KT 9SM BKN017 OVC023 20/15 A2998 RMK AO2 SLP144
  • 200558Z AUTO 00000KT 10SM BKN018 OVC023 20/15 A2998 RMK AO2 SLP144 T01990151 10236 20192 402830152 50000
  • 200548Z AUTO 02005KT 9SM OVC020 20/15 A2998 RMK AO2 SLP145
  • 200523Z AUTO 36003KT 9SM OVC019 20/15 A2998 RMK AO2 SLP145

TAF TAF KGRK
Valid from the 20 at 00:00 until the 21 at 06:00 UTC


200000Z 2000/2106 04009KT 9999 SCT030 QNH2993INS
BECMG 2007/2008 VRB06KT 8000 BR BKN010 QNH3002INS
BECMG 2016/2017 VRB06KT 9999 NSW BKN020 QNH3004INS TX28/2021Z TN16/2015Z
KZHU FIR / North America



MET'MAP, your aeronautical weather chart ! - Copyright ORBIFLY December 2007 - Disclaimer

ORBIFLY MET'MAP TEAM :

Programming & Development : Alexandra Zaïnal
Concept & original design : Baudouin d'Aumeries
Assistance for programming : Marc-Olivier Méhu
Technical & hardware support : Manuel Goepfert

Contact : metmap@orbifly.com




SOURCES & CREDITS :

   NOAA       Earth
Advisory